Shocks Mills, Pennsylvania
Current Conditions -  °F | °C
As of 2:56 PM on Friday 31 Oct 2014 (Local Time) from KMDT Reporting Station
Broken Clouds Broken Clouds  
Wind Chill: 52°   Ceiling: 6000
Heat Index: 52°   Visibility: 10mi
Dew Point: 34°   Wind: 3mph
Humidity: 50%   Direction: 250°WSW
Pressure: 29.89"   Gusts: NA
Location:  40.0731°N, 76.571°W
Report Text: KMDT 311856Z 25003KT 10SM FEW045 BKN060 BKN250 11/01 A2989 RMK AO2 SLP124 T01110011
Loading
Personal Weather Stations






























Interactive Weather Map
Tropical Storm Tracking
New forecast layout! Learn more

10-Day Weather Forecast

Advertisements
Track Severe Weather on mobile